Time;durP1;ratioP1;P1;durP2;ratioP2;P2;SDS_P1;SDS_P2;PMS_P1;PMS_P2;Temp;Humidity;BMP_temperature;BMP_pressure;BME280_temperature;BME280_humidity;BME280_pressure;Samples;Min_cycle;Max_cycle;Signal;HPM_P1;HPM_P2
2023/08/27 00:00:47;;;;;;;8.20;6.47;;;14.10;99.90;;;;;;5099999;27;20050;-80
2023/08/27 00:03:13;;;;;;;7.53;6.55;;;14.20;99.90;;;;;;5095364;27;20052;-80
2023/08/27 00:05:43;;;;;;;7.70;6.03;;;14.20;99.90;;;;;;5097738;27;20109;-81
2023/08/27 00:08:09;;;;;;;9.20;6.53;;;14.20;99.90;;;;;;5113390;27;20186;-82
2023/08/27 00:10:45;;;;;;;8.20;6.95;;;14.20;99.90;;;;;;5081948;27;20043;-81
2023/08/27 00:13:12;;;;;;;7.82;6.15;;;14.20;99.90;;;;;;5111974;27;20080;-81
2023/08/27 00:15:45;;;;;;;7.35;6.55;;;14.20;99.90;;;;;;5094877;27;20049;-80
2023/08/27 00:18:12;;;;;;;8.93;6.30;;;14.20;99.90;;;;;;5100446;27;20070;-82
2023/08/27 00:20:37;;;;;;;7.85;6.22;;;14.10;99.90;;;;;;5114870;27;20043;-81
2023/08/27 00:23:04;;;;;;;10.25;6.88;;;14.20;99.90;;;;;;5077845;27;20119;-81
2023/08/27 00:25:30;;;;;;;8.93;6.97;;;14.20;99.90;;;;;;5093134;27;20051;-82
2023/08/27 00:27:56;;;;;;;8.20;7.38;;;14.20;99.90;;;;;;5110958;27;20047;-82
2023/08/27 00:30:21;;;;;;;8.05;7.15;;;13.80;99.90;;;;;;5082613;27;20050;-81
2023/08/27 00:32:47;;;;;;;10.50;7.07;;;14.30;99.90;;;;;;5112632;27;20587;-80
2023/08/27 00:35:13;;;;;;;9.27;7.15;;;14.30;99.90;;;;;;5093354;27;20051;-81
2023/08/27 00:37:57;;;;;;;8.55;6.72;;;14.30;99.90;;;;;;5081631;27;20398;-81
2023/08/27 00:40:23;;;;;;;8.25;7.45;;;14.20;99.90;;;;;;5094310;27;20502;-81
2023/08/27 00:42:49;;;;;;;10.40;7.55;;;14.20;99.90;;;;;;5079831;27;20054;-81
2023/08/27 00:45:14;;;;;;;7.85;6.63;;;14.20;99.90;;;;;;5112236;27;20118;-81
2023/08/27 00:47:41;;;;;;;8.35;7.22;;;14.20;99.90;;;;;;5093392;27;20131;-85
2023/08/27 00:50:14;;;;;;;10.27;7.32;;;13.30;99.90;;;;;;5094986;27;20054;-81
2023/08/27 00:52:42;;;;;;;10.02;7.38;;;14.30;99.90;;;;;;5098852;27;20405;-83
2023/08/27 00:55:10;;;;;;;8.35;6.75;;;14.30;99.90;;;;;;5064574;27;20043;-81
2023/08/27 00:57:40;;;;;;;9.02;6.90;;;14.30;99.90;;;;;;5095229;27;20123;-82
2023/08/27 01:00:09;;;;;;;7.15;6.28;;;14.30;99.90;;;;;;5091610;27;20290;-84
2023/08/27 01:02:37;;;;;;;7.43;6.50;;;14.30;99.90;;;;;;5064776;27;20051;-81
2023/08/27 01:05:04;;;;;;;8.98;7.60;;;14.30;99.90;;;;;;5093356;27;20054;-81
2023/08/27 01:07:56;;;;;;;8.85;7.05;;;14.30;99.90;;;;;;5092661;27;21162;-82
2023/08/27 01:10:31;;;;;;;9.48;7.10;;;14.30;99.90;;;;;;5087093;27;20055;-81
2023/08/27 01:13:08;;;;;;;8.35;6.95;;;14.30;99.90;;;;;;5093979;27;20035;-82
2023/08/27 01:15:35;;;;;;;11.27;7.30;;;14.30;99.90;;;;;;5091410;27;20401;-82
2023/08/27 01:18:02;;;;;;;9.43;6.72;;;14.30;99.90;;;;;;5092210;27;20048;-81
2023/08/27 01:20:30;;;;;;;9.85;7.75;;;14.30;99.90;;;;;;5082564;27;20119;-80
2023/08/27 01:22:59;;;;;;;7.82;6.97;;;14.30;99.90;;;;;;5092053;27;20050;-82
2023/08/27 01:25:38;;;;;;;7.50;6.75;;;14.30;99.90;;;;;;5093490;27;20494;-81
2023/08/27 01:28:14;;;;;;;9.00;7.53;;;14.30;99.90;;;;;;5094223;28;20116;-82
2023/08/27 01:31:03;;;;;;;;;;;14.30;99.90;;;;;;5093934;27;20154;-83
2023/08/27 01:33:30;;;;;;;9.80;7.55;;;14.30;99.90;;;;;;5127782;27;19934;-81
2023/08/27 01:35:57;;;;;;;10.23;7.38;;;14.30;99.90;;;;;;5109815;27;20410;-82
2023/08/27 01:38:23;;;;;;;8.60;7.07;;;14.40;99.90;;;;;;5079672;27;21245;-84
2023/08/27 01:40:49;;;;;;;12.85;7.72;;;14.40;99.90;;;;;;5083105;28;20043;-82
2023/08/27 01:43:14;;;;;;;8.98;7.25;;;14.40;99.90;;;;;;5091297;27;20168;-82
2023/08/27 01:45:40;;;;;;;8.57;7.65;;;14.40;99.90;;;;;;5093899;28;20044;-82
2023/08/27 01:48:06;;;;;;;9.15;8.25;;;14.40;99.90;;;;;;5077375;27;20049;-81
2023/08/27 01:50:38;;;;;;;13.70;7.97;;;14.40;99.90;;;;;;5091264;27;20762;-81
2023/08/27 01:53:04;;;;;;;9.07;7.68;;;14.40;99.90;;;;;;5065254;28;20040;-81
2023/08/27 01:55:30;;;;;;;11.43;8.40;;;14.40;99.90;;;;;;5111952;27;20666;-82
2023/08/27 01:57:55;;;;;;;9.80;7.97;;;14.40;99.90;;;;;;5064787;27;20055;-82
2023/08/27 02:00:22;;;;;;;9.82;7.40;;;14.40;99.90;;;;;;5095430;27;20047;-82
2023/08/27 02:02:51;;;;;;;8.63;7.28;;;14.40;99.90;;;;;;5097691;27;20087;-81
2023/08/27 02:05:19;;;;;;;10.15;8.10;;;14.40;99.90;;;;;;5115927;27;20045;-81
2023/08/27 02:07:45;;;;;;;8.38;7.50;;;14.40;99.90;;;;;;5051347;27;20508;-82
2023/08/27 02:10:13;;;;;;;9.77;7.45;;;14.40;99.90;;;;;;5081244;27;20415;-83
2023/08/27 02:12:39;;;;;;;10.23;7.43;;;14.40;99.90;;;;;;5098066;27;20753;-84
2023/08/27 02:15:07;;;;;;;9.40;8.00;;;14.40;99.90;;;;;;5097969;27;20043;-81
2023/08/27 02:17:34;;;;;;;8.63;7.72;;;13.80;99.90;;;;;;5085901;27;20051;-82
2023/08/27 02:20:00;;;;;;;9.75;7.88;;;14.40;99.90;;;;;;5095910;27;20035;-81
2023/08/27 02:22:26;;;;;;;9.43;8.07;;;14.40;99.90;;;;;;5078827;27;20050;-82
2023/08/27 02:24:52;;;;;;;8.23;7.43;;;14.40;99.90;;;;;;5077362;27;20055;-83
2023/08/27 02:27:19;;;;;;;9.30;8.07;;;14.40;99.90;;;;;;5098468;27;20242;-82
2023/08/27 02:29:44;;;;;;;10.60;8.32;;;14.40;99.90;;;;;;5112645;27;20051;-81
2023/08/27 02:32:16;;;;;;;12.10;8.60;;;14.40;99.90;;;;;;5114599;27;20054;-84
2023/08/27 02:34:43;;;;;;;10.27;8.00;;;14.40;99.90;;;;;;5082615;27;20043;-82
2023/08/27 02:37:09;;;;;;;9.00;8.07;;;14.40;99.90;;;;;;5102581;27;20424;-83
2023/08/27 02:39:36;;;;;;;9.40;7.60;;;14.40;99.90;;;;;;5096246;27;20122;-81
2023/08/27 02:42:02;;;;;;;11.32;8.35;;;14.40;99.90;;;;;;5086764;27;20130;-82
2023/08/27 02:44:28;;;;;;;9.30;7.65;;;14.40;99.90;;;;;;5086636;27;20078;-82
2023/08/27 02:46:54;;;;;;;10.63;8.55;;;14.40;99.90;;;;;;5086725;27;20167;-83
2023/08/27 02:49:20;;;;;;;9.38;7.68;;;14.40;99.90;;;;;;5068361;27;20112;-81
2023/08/27 02:51:46;;;;;;;9.00;7.40;;;14.40;99.90;;;;;;5115250;27;20043;-82
2023/08/27 02:54:11;;;;;;;10.07;8.60;;;14.40;99.90;;;;;;5082985;27;20046;-82
2023/08/27 02:56:38;;;;;;;11.45;8.30;;;14.40;99.90;;;;;;5078107;27;20054;-82
2023/08/27 02:59:04;;;;;;;9.75;8.75;;;14.40;99.90;;;;;;5068587;27;20529;-82
2023/08/27 03:01:30;;;;;;;11.77;8.93;;;14.40;99.90;;;;;;5066753;27;20139;-83
2023/08/27 03:03:56;;;;;;;10.68;8.60;;;14.40;99.90;;;;;;5095891;27;20075;-81
2023/08/27 03:06:22;;;;;;;12.05;8.90;;;14.40;99.90;;;;;;5084627;27;20601;-83
2023/08/27 03:08:47;;;;;;;9.63;7.88;;;14.40;99.90;;;;;;5098774;27;20039;-82
2023/08/27 03:11:13;;;;;;;11.93;9.40;;;14.40;99.90;;;;;;5096864;27;20110;-82
2023/08/27 03:13:39;;;;;;;10.68;8.30;;;14.40;99.90;;;;;;5069239;27;20159;-81
2023/08/27 03:16:05;;;;;;;11.80;9.35;;;14.40;99.90;;;;;;5098308;27;20415;-82
2023/08/27 03:18:36;;;;;;;10.55;8.93;;;14.50;99.90;;;;;;5077673;27;20046;-81
2023/08/27 03:21:01;;;;;;;11.32;9.55;;;14.50;99.90;;;;;;5082555;27;20054;-81
2023/08/27 03:23:30;;;;;;;13.32;10.73;;;14.50;99.90;;;;;;5113185;27;20490;-82
2023/08/27 03:25:56;;;;;;;13.80;11.18;;;14.60;99.90;;;;;;5115755;27;20122;-82
2023/08/27 03:28:22;;;;;;;13.75;11.27;;;14.70;99.90;;;;;;5112867;27;20447;-82
2023/08/27 03:30:50;;;;;;;13.75;10.65;;;14.80;99.90;;;;;;5114056;27;20043;-81
2023/08/27 03:33:16;;;;;;;13.30;10.68;;;14.80;99.90;;;;;;5094117;27;20047;-82
2023/08/27 03:35:54;;;;;;;14.55;10.77;;;14.90;99.90;;;;;;5113585;27;20047;-81
2023/08/27 03:38:20;;;;;;;13.68;11.50;;;15.00;99.90;;;;;;5080472;27;20575;-82
2023/08/27 03:40:48;;;;;;;13.10;10.52;;;15.00;99.90;;;;;;5096754;27;20916;-81
2023/08/27 03:43:14;;;;;;;15.13;10.73;;;15.00;99.90;;;;;;5113225;27;20038;-80
2023/08/27 03:45:41;;;;;;;13.15;10.70;;;15.10;99.90;;;;;;5113606;27;20766;-84
2023/08/27 03:48:06;;;;;;;11.15;9.20;;;15.10;99.90;;;;;;5095425;27;20450;-81
2023/08/27 03:50:32;;;;;;;12.43;10.35;;;15.20;99.90;;;;;;5096231;27;20131;-81
2023/08/27 03:52:58;;;;;;;14.68;10.43;;;15.20;99.90;;;;;;5099177;27;20486;-81
2023/08/27 03:55:25;;;;;;;13.48;10.65;;;14.70;99.90;;;;;;5081269;27;20043;-83
2023/08/27 03:58:02;;;;;;;14.90;10.80;;;15.20;99.90;;;;;;5100706;27;20047;-84
2023/08/27 04:00:27;;;;;;;12.38;10.20;;;15.30;99.90;;;;;;5114462;27;20056;-82
2023/08/27 04:02:53;;;;;;;13.20;10.23;;;15.30;99.90;;;;;;5096877;27;20474;-82
2023/08/27 04:05:19;;;;;;;15.38;10.02;;;15.30;99.90;;;;;;5111716;27;20048;-83
2023/08/27 04:07:45;;;;;;;11.65;9.48;;;14.90;99.90;;;;;;5098182;27;20047;-81
2023/08/27 04:10:11;;;;;;;14.13;10.10;;;14.00;99.90;;;;;;5098225;27;20055;-84
2023/08/27 04:12:37;;;;;;;13.32;10.18;;;15.30;99.90;;;;;;5084008;27;20046;-81
2023/08/27 04:15:03;;;;;;;13.73;9.93;;;15.30;99.90;;;;;;5096482;27;20043;-81
2023/08/27 04:17:41;;;;;;;13.73;10.18;;;15.30;99.90;;;;;;5066065;27;20063;-83
2023/08/27 04:20:08;;;;;;;11.65;9.73;;;15.30;99.90;;;;;;5067126;27;20393;-81
2023/08/27 04:22:34;;;;;;;13.88;10.32;;;15.30;99.90;;;;;;5114050;27;20039;-81
2023/08/27 04:25:00;;;;;;;9.52;6.80;;;15.30;99.90;;;;;;5083952;27;20047;-81
2023/08/27 04:27:41;;;;;;;7.53;4.78;;;15.30;99.90;;;;;;5097031;27;20046;-82
2023/08/27 04:30:07;;;;;;;5.45;3.10;;;15.00;99.90;;;;;;5097665;27;20495;-83
2023/08/27 04:32:33;;;;;;;5.47;2.60;;;14.90;99.90;;;;;;5095846;27;20096;-81
2023/08/27 04:34:59;;;;;;;4.95;2.30;;;15.20;99.90;;;;;;5114381;27;20043;-81
2023/08/27 04:37:25;;;;;;;3.25;1.77;;;15.10;99.90;;;;;;5092850;27;20076;-83
2023/08/27 04:39:51;;;;;;;4.68;1.88;;;16.40;99.90;;;;;;5081974;27;20120;-81
2023/08/27 04:42:17;;;;;;;2.92;1.35;;;15.10;99.90;;;;;;5117679;27;20035;-84
2023/08/27 04:44:58;;;;;;;3.03;1.20;;;15.10;99.90;;;;;;5096086;27;20490;-83
2023/08/27 04:47:25;;;;;;;3.58;1.27;;;15.10;99.90;;;;;;5099832;27;20050;-80
2023/08/27 04:49:54;;;;;;;2.00;1.02;;;15.00;99.90;;;;;;5096690;27;20047;-83
2023/08/27 04:52:19;;;;;;;4.22;1.10;;;15.00;99.90;;;;;;5113850;27;20043;-83
2023/08/27 04:54:45;;;;;;;1.88;1.00;;;15.00;99.90;;;;;;5101387;27;20055;-81
2023/08/27 04:57:11;;;;;;;2.30;1.10;;;15.00;99.90;;;;;;5079305;27;20085;-82
2023/08/27 04:59:37;;;;;;;2.08;1.13;;;14.60;99.90;;;;;;5085476;27;20097;-83
2023/08/27 05:02:03;;;;;;;2.70;1.08;;;15.10;99.90;;;;;;5098530;27;20406;-83
2023/08/27 05:04:29;;;;;;;2.33;1.20;;;15.10;99.90;;;;;;5080156;27;20125;-83
2023/08/27 05:06:55;;;;;;;3.67;1.20;;;15.10;99.90;;;;;;5068153;27;21320;-83
2023/08/27 05:09:21;;;;;;;3.30;1.20;;;15.10;99.90;;;;;;5082077;27;20135;-82
2023/08/27 05:11:46;;;;;;;3.67;1.58;;;15.10;99.90;;;;;;5099212;27;20111;-82
2023/08/27 05:14:12;;;;;;;3.63;1.50;;;15.10;99.90;;;;;;5073238;28;20115;-81
2023/08/27 05:16:57;;;;;;;3.33;1.40;;;15.10;99.90;;;;;;5084429;27;20137;-83
2023/08/27 05:19:43;;;;;;;4.07;1.73;;;15.20;99.90;;;;;;5083386;27;21180;-84
2023/08/27 05:22:09;;;;;;;3.97;1.88;;;15.20;99.90;;;;;;5096777;27;20111;-81
2023/08/27 05:24:35;;;;;;;4.63;2.05;;;15.20;99.90;;;;;;5113022;27;20043;-81
2023/08/27 05:27:03;;;;;;;3.85;2.38;;;15.20;99.90;;;;;;5077566;28;20043;-81
2023/08/27 05:29:46;;;;;;;3.50;2.60;;;15.20;99.90;;;;;;5095057;27;20236;-81
2023/08/27 05:32:12;;;;;;;6.45;3.00;;;15.20;99.90;;;;;;5062626;28;20219;-84
2023/08/27 05:34:39;;;;;;;6.50;3.35;;;15.20;99.90;;;;;;5082314;27;20047;-82
2023/08/27 05:37:05;;;;;;;6.20;3.97;;;15.20;99.90;;;;;;5094877;28;20107;-80
2023/08/27 05:39:40;;;;;;;5.78;4.00;;;15.20;99.90;;;;;;5075633;28;20123;-78
2023/08/27 05:42:49;;;;;;;6.70;4.88;;;15.20;99.90;;;;;;5078546;28;20134;-78
2023/08/27 05:45:36;;;;;;;7.82;5.22;;;15.30;99.90;;;;;;5096907;28;20047;-80
2023/08/27 05:48:01;;;;;;;8.07;5.90;;;15.30;99.90;;;;;;5096655;27;20051;-78
2023/08/27 05:50:50;;;;;;;9.10;5.90;;;15.30;99.90;;;;;;5096991;28;20070;-78
2023/08/27 05:53:42;;;;;;;7.38;5.53;;;15.30;99.90;;;;;;5094991;27;20056;-78
2023/08/27 05:56:27;;;;;;;7.25;5.15;;;15.30;99.90;;;;;;5092774;28;20112;-80
2023/08/27 05:59:15;;;;;;;8.30;5.40;;;15.40;99.90;;;;;;5039359;28;20612;-78
2023/08/27 06:02:09;;;;;;;8.88;6.07;;;15.40;99.90;;;;;;5092007;28;20050;-78
2023/08/27 06:04:34;;;;;;;10.23;6.45;;;15.40;99.90;;;;;;5079852;28;20532;-78
2023/08/27 06:07:20;;;;;;;8.65;6.25;;;15.50;99.90;;;;;;5074092;28;20044;-78
2023/08/27 06:10:25;;;;;;;11.35;6.97;;;15.50;99.90;;;;;;5086205;28;20087;-78
2023/08/27 06:12:51;;;;;;;8.07;6.68;;;15.60;99.90;;;;;;5071193;28;20523;-78
2023/08/27 06:15:16;;;;;;;10.30;6.60;;;15.60;99.90;;;;;;5058445;28;20113;-78
2023/08/27 06:18:08;;;;;;;8.60;6.50;;;15.50;99.90;;;;;;5055284;28;20063;-78
2023/08/27 06:21:03;;;;;;;9.02;6.75;;;14.80;99.90;;;;;;5083433;28;20396;-78
2023/08/27 06:23:55;;;;;;;9.85;7.53;;;15.70;99.90;;;;;;5056601;28;20048;-78
2023/08/27 06:26:21;;;;;;;11.38;7.70;;;15.80;99.90;;;;;;5085685;28;20137;-78
2023/08/27 06:28:47;;;;;;;9.00;6.97;;;15.80;99.90;;;;;;5069712;28;20473;-78
2023/08/27 06:31:13;;;;;;;9.27;7.03;;;15.90;99.90;;;;;;5070076;28;20039;-78
2023/08/27 06:33:39;;;;;;;9.23;6.85;;;15.90;99.90;;;;;;5063390;27;20443;-80
2023/08/27 06:36:50;;;;;;;10.05;6.32;;;15.90;99.90;;;;;;5091545;28;20047;-79
2023/08/27 06:39:36;;;;;;;10.95;6.72;;;16.00;99.90;;;;;;5094133;27;20036;-79
2023/08/27 06:42:02;;;;;;;11.20;7.47;;;16.10;99.90;;;;;;5062186;28;20043;-81
2023/08/27 06:44:28;;;;;;;8.13;5.72;;;16.10;99.90;;;;;;5095226;27;20057;-78
2023/08/27 06:46:55;;;;;;;10.23;4.75;;;16.10;99.90;;;;;;5112322;27;20122;-79
2023/08/27 06:50:06;;;;;;;5.22;3.15;;;16.10;99.90;;;;;;5079338;27;20199;-78
2023/08/27 06:52:50;;;;;;;4.05;1.80;;;16.10;99.90;;;;;;5113282;27;20089;-78
2023/08/27 06:55:54;;;;;;;3.45;1.75;;;16.10;99.90;;;;;;5114563;27;20083;-79
2023/08/27 06:58:21;;;;;;;;;;;16.20;99.90;;;;;;5095260;27;20464;-79
2023/08/27 07:01:06;;;;;;;2.88;1.30;;;16.20;99.90;;;;;;5112139;27;19927;-80
2023/08/27 07:03:58;;;;;;;2.60;1.20;;;16.20;99.90;;;;;;5083673;27;20055;-81
2023/08/27 07:06:53;;;;;;;2.65;1.30;;;16.30;99.90;;;;;;5113075;27;20109;-80
2023/08/27 07:09:38;;;;;;;2.22;1.15;;;16.50;99.20;;;;;;5099845;27;20054;-77
2023/08/27 07:12:29;;;;;;;1.77;1.00;;;16.70;98.20;;;;;;5093650;27;20044;-78
2023/08/27 07:15:32;;;;;;;1.30;1.00;;;16.80;97.70;;;;;;5081621;27;20043;-80
2023/08/27 07:18:38;;;;;;;2.13;0.90;;;16.90;96.00;;;;;;5094246;27;20479;-79
2023/08/27 07:21:10;;;;;;;1.50;0.90;;;17.00;95.10;;;;;;5091971;27;20453;-82
2023/08/27 07:23:36;;;;;;;1.73;0.82;;;17.00;95.00;;;;;;5095547;27;20043;-80
2023/08/27 07:26:03;;;;;;;2.13;0.70;;;17.00;94.40;;;;;;5091453;27;20051;-79
2023/08/27 07:28:49;;;;;;;3.55;1.02;;;17.10;94.30;;;;;;5081216;27;20406;-79
2023/08/27 07:31:15;;;;;;;2.20;0.65;;;17.10;93.50;;;;;;5080496;27;20462;-80
2023/08/27 07:33:42;;;;;;;3.47;0.70;;;17.20;94.00;;;;;;5095112;27;20079;-79
2023/08/27 07:36:26;;;;;;;1.42;0.70;;;17.20;93.50;;;;;;5094914;27;20693;-80
2023/08/27 07:39:28;;;;;;;0.80;0.50;;;17.20;92.00;;;;;;5093374;27;20051;-80
2023/08/27 07:42:17;;;;;;;1.50;0.70;;;17.30;91.60;;;;;;5112109;27;20501;-79
2023/08/27 07:45:08;;;;;;;1.73;0.77;;;17.50;92.10;;;;;;5095115;27;20048;-78
2023/08/27 07:47:34;;;;;;;2.22;0.80;;;17.60;91.10;;;;;;5094441;27;20650;-84
2023/08/27 07:49:59;;;;;;;2.00;0.90;;;17.80;91.10;;;;;;5081670;27;20096;-82
2023/08/27 07:52:25;;;;;;;1.33;0.60;;;18.00;90.60;;;;;;5102121;27;20050;-82
2023/08/27 07:55:19;;;;;;;2.67;1.00;;;18.00;89.00;;;;;;5091651;27;20043;-81
2023/08/27 07:57:44;;;;;;;3.03;0.80;;;18.10;85.30;;;;;;5086594;27;20484;-82
2023/08/27 08:00:14;;;;;;;1.13;0.60;;;18.30;85.20;;;;;;5101403;27;20265;-81
2023/08/27 08:02:43;;;;;;;1.48;0.70;;;18.50;82.40;;;;;;5114658;27;20070;-80
2023/08/27 08:05:09;;;;;;;1.20;0.60;;;18.70;79.70;;;;;;5118589;27;20596;-81
2023/08/27 08:07:35;;;;;;;1.48;0.63;;;18.90;76.30;;;;;;5116548;27;20055;-81
2023/08/27 08:10:01;;;;;;;1.50;0.80;;;19.10;73.00;;;;;;5065537;27;20055;-80
2023/08/27 08:12:27;;;;;;;0.70;0.50;;;19.30;69.80;;;;;;5098227;27;20047;-82
2023/08/27 08:14:53;;;;;;;1.05;0.65;;;19.50;67.00;;;;;;5081322;27;20050;-81
2023/08/27 08:17:20;;;;;;;1.02;0.60;;;19.60;66.60;;;;;;5100632;27;20046;-81
2023/08/27 08:19:46;;;;;;;1.00;0.70;;;20.00;66.40;;;;;;5085957;27;20055;-81
2023/08/27 08:22:12;;;;;;;1.52;0.70;;;20.20;65.00;;;;;;5080771;27;20058;-82
2023/08/27 08:24:38;;;;;;;1.00;0.60;;;20.40;63.00;;;;;;5115989;27;20051;-83
2023/08/27 08:27:04;;;;;;;1.30;0.65;;;20.50;59.90;;;;;;5100266;27;20045;-82
2023/08/27 08:29:33;;;;;;;0.82;0.50;;;20.60;56.40;;;;;;5079409;27;20044;-81
2023/08/27 08:31:59;;;;;;;0.70;0.45;;;20.70;52.50;;;;;;5115055;27;20082;-83
2023/08/27 08:34:28;;;;;;;0.90;0.50;;;20.90;50.80;;;;;;5099971;27;20390;-83
2023/08/27 08:36:55;;;;;;;0.88;0.60;;;21.10;46.40;;;;;;5101578;27;20130;-83
2023/08/27 08:39:21;;;;;;;1.42;0.65;;;21.20;40.20;;;;;;5084523;27;20130;-84
2023/08/27 08:42:07;;;;;;;1.52;0.60;;;21.20;36.80;;;;;;5098566;27;20077;-77
2023/08/27 08:44:45;;;;;;;1.02;0.57;;;21.30;33.80;;;;;;5085866;27;20089;-86
2023/08/27 08:47:12;;;;;;;0.80;0.50;;;21.30;30.60;;;;;;5117412;27;20141;-82
2023/08/27 08:50:00;;;;;;;1.05;0.50;;;21.30;26.70;;;;;;5102027;27;20398;-78
2023/08/27 08:52:27;;;;;;;1.17;0.60;;;21.40;22.60;;;;;;5088711;27;20047;-81
2023/08/27 08:54:55;;;;;;;1.42;0.70;;;21.40;20.30;;;;;;5093412;27;20524;-81
2023/08/27 08:57:47;;;;;;;1.85;0.68;;;21.50;18.40;;;;;;5113763;27;20077;-77
2023/08/27 09:00:20;;;;;;;2.15;0.82;;;21.50;6.40;;;;;;5112704;27;20051;-76
2023/08/27 09:02:46;;;;;;;1.67;0.80;;;21.50;22.90;;;;;;5082420;28;20524;-75
2023/08/27 09:05:16;;;;;;;2.05;0.82;;;21.60;25.30;;;;;;5075735;27;20062;-78
2023/08/27 09:07:42;;;;;;;1.52;0.80;;;21.70;24.80;;;;;;5096540;27;20058;-76
2023/08/27 09:10:10;;;;;;;2.65;0.80;;;21.90;25.50;;;;;;5113748;27;20059;-77
2023/08/27 09:12:40;;;;;;;1.45;0.73;;;22.00;26.40;;;;;;5095201;27;20051;-76
2023/08/27 09:15:15;;;;;;;2.38;0.90;;;22.30;25.90;;;;;;5095361;27;20554;-76
2023/08/27 09:21:07;;;;;;;1.77;0.77;;;22.80;8.40;;;;;;5116941;27;20051;-83
2023/08/27 09:23:39;;;;;;;4.22;1.00;;;22.60;11.10;;;;;;5087090;27;20088;-83
2023/08/27 09:26:05;;;;;;;0.88;0.63;;;22.40;4.70;;;;;;5084953;27;20043;-84
2023/08/27 09:28:35;;;;;;;2.63;0.93;;;21.90;4.80;;;;;;5103418;27;20051;-82
2023/08/27 09:31:01;;;;;;;2.00;0.70;;;21.80;5.60;;;;;;5070559;27;20047;-83
2023/08/27 09:33:43;;;;;;;1.67;0.88;;;22.30;9.40;;;;;;5076883;27;20047;-83
2023/08/27 09:36:09;;;;;;;1.85;0.73;;;22.30;12.60;;;;;;5105489;27;20377;-85
2023/08/27 09:38:36;;;;;;;2.33;1.00;;;22.30;15.60;;;;;;5105903;27;20035;-83
2023/08/27 09:41:16;;;;;;;1.95;0.80;;;22.30;13.20;;;;;;5070954;27;20491;-82
2023/08/27 09:43:50;;;;;;;2.05;0.75;;;22.30;3.70;;;;;;5088347;27;20047;-83
2023/08/27 09:46:22;;;;;;;1.30;0.77;;;22.50;5.50;;;;;;5087676;27;20039;-83
2023/08/27 09:48:59;;;;;;;2.55;0.77;;;22.80;2.50;;;;;;5070157;27;20043;-82
2023/08/27 09:51:31;;;;;;;1.75;0.70;;;23.10;1.00;;;;;;5097569;27;20442;-84
2023/08/27 09:53:58;;;;;;;1.70;0.77;;;23.40;1.00;;;;;;5100098;28;20051;-81
2023/08/27 09:56:28;;;;;;;2.83;0.88;;;23.60;1.00;;;;;;5099354;28;20328;-82
2023/08/27 09:58:55;;;;;;;1.33;0.70;;;23.80;1.00;;;;;;5084059;27;20043;-84
2023/08/27 10:01:33;;;;;;;1.42;0.70;;;23.90;1.00;;;;;;5100028;27;20053;-83
2023/08/27 10:04:07;;;;;;;2.13;1.02;;;24.10;1.00;;;;;;5078325;28;20078;-84
2023/08/27 10:06:39;;;;;;;3.03;0.80;;;24.00;1.00;;;;;;5098445;27;20078;-83
2023/08/27 10:09:06;;;;;;;1.40;0.80;;;24.10;1.00;;;;;;5096642;27;20127;-82
2023/08/27 10:11:36;;;;;;;4.40;0.95;;;24.20;1.00;;;;;;5096860;27;20035;-80
2023/08/27 10:14:04;;;;;;;2.97;0.80;;;23.70;1.00;;;;;;5090686;27;20097;-80
2023/08/27 10:16:37;;;;;;;2.60;0.60;;;22.70;1.00;;;;;;5096470;27;20420;-80
2023/08/27 10:19:06;;;;;;;3.88;0.70;;;21.80;1.00;;;;;;5097282;27;20039;-79
2023/08/27 10:21:32;;;;;;;4.07;0.82;;;21.20;1.00;;;;;;5091029;27;20041;-79
2023/08/27 10:23:59;;;;;;;8.30;1.17;;;20.60;1.00;;;;;;5101118;27;20107;-81
2023/08/27 10:26:32;;;;;;;7.82;1.27;;;19.90;3.30;;;;;;5087249;27;20045;-81
2023/08/27 10:29:06;;;;;;;5.97;1.17;;;19.30;22.40;;;;;;5100436;27;20425;-79
2023/08/27 10:31:57;;;;;;;8.18;1.50;;;18.80;35.90;;;;;;5103943;27;20062;-82
2023/08/27 10:34:30;;;;;;;5.65;1.20;;;18.40;49.30;;;;;;5101843;27;20047;-84
2023/08/27 10:37:06;;;;;;;8.13;1.38;;;18.10;57.70;;;;;;5087618;27;20126;-85
2023/08/27 10:39:33;;;;;;;3.47;0.80;;;17.90;64.10;;;;;;5092693;27;20515;-83
2023/08/27 10:42:02;;;;;;;3.78;0.90;;;17.70;67.40;;;;;;5092124;27;20047;-84
2023/08/27 10:44:29;;;;;;;3.08;0.82;;;17.50;68.90;;;;;;5090241;27;20044;-83
2023/08/27 10:47:13;;;;;;;3.80;0.80;;;17.40;70.50;;;;;;5070579;27;20055;-83
2023/08/27 10:49:47;;;;;;;2.90;0.80;;;17.10;71.50;;;;;;5100404;27;20054;-84
2023/08/27 10:52:25;;;;;;;2.65;0.60;;;17.00;73.00;;;;;;5098620;27;20492;-83
2023/08/27 10:55:01;;;;;;;3.38;0.88;;;17.00;74.90;;;;;;5088516;27;20051;-83
2023/08/27 10:57:27;;;;;;;4.20;0.60;;;16.90;76.30;;;;;;5105328;27;20055;-84
2023/08/27 11:00:12;;;;;;;1.90;0.70;;;16.90;76.30;;;;;;5080339;27;20040;-84
2023/08/27 11:03:13;;;;;;;1.85;0.43;;;16.80;75.80;;;;;;5095300;27;20413;-84
2023/08/27 11:05:40;;;;;;;0.95;0.60;;;16.70;74.90;;;;;;5081950;27;20047;-84
2023/08/27 11:08:18;;;;;;;1.40;0.60;;;16.70;74.20;;;;;;5071903;27;20035;-84
2023/08/27 11:10:45;;;;;;;0.55;0.38;;;16.60;73.30;;;;;;5098577;27;20066;-82
2023/08/27 11:13:37;;;;;;;1.35;0.32;;;17.00;73.70;;;;;;5100953;27;20060;-81
2023/08/27 11:16:15;;;;;;;1.25;0.40;;;16.70;74.40;;;;;;5082523;27;20513;-83
2023/08/27 11:18:47;;;;;;;1.02;0.40;;;16.70;75.00;;;;;;5100981;27;20082;-83
2023/08/27 11:21:21;;;;;;;1.25;0.60;;;16.80;74.90;;;;;;5085313;27;20082;-82
2023/08/27 11:24:15;;;;;;;1.65;0.63;;;16.90;75.30;;;;;;5104062;27;20457;-83
2023/08/27 11:26:42;;;;;;;3.03;0.50;;;16.90;76.10;;;;;;5102419;27;20138;-85
2023/08/27 11:29:09;;;;;;;1.20;0.47;;;17.10;75.80;;;;;;5092282;27;20639;-84
2023/08/27 11:31:39;;;;;;;2.42;0.90;;;17.00;75.50;;;;;;5099099;27;20498;-82
2023/08/27 11:34:06;;;;;;;1.08;0.60;;;17.10;75.70;;;;;;5102319;27;20469;-83
2023/08/27 11:36:33;;;;;;;0.68;0.43;;;17.30;74.70;;;;;;5104122;27;20637;-84
2023/08/27 11:39:00;;;;;;;1.67;0.60;;;17.40;73.00;;;;;;5118060;27;20028;-84
2023/08/27 11:41:33;;;;;;;2.30;0.63;;;17.50;70.70;;;;;;5100906;27;20084;-82
2023/08/27 11:43:59;;;;;;;1.17;0.60;;;17.70;70.10;;;;;;5133902;27;20055;-83
2023/08/27 11:49:06;;;;;;;4.15;0.80;;;17.90;70.10;;;;;;5164564;27;20128;-73
2023/08/27 11:51:33;;;;;;;4.63;0.90;;;18.00;70.00;;;;;;5131249;27;20129;-72
2023/08/27 11:54:10;;;;;;;1.25;0.65;;;18.30;70.00;;;;;;5149469;27;20144;-71
2023/08/27 11:56:44;;;;;;;2.63;0.93;;;18.70;70.40;;;;;;5148349;27;20078;-72
2023/08/27 11:59:18;;;;;;;4.07;0.75;;;19.10;67.60;;;;;;5073562;27;1550394;-71
2023/08/27 12:01:46;;;;;;;3.63;0.90;;;18.60;64.30;;;;;;5092044;27;20043;-72
2023/08/27 12:04:12;;;;;;;4.43;0.77;;;19.50;62.30;;;;;;5092108;27;20493;-71
2023/08/27 12:06:49;;;;;;;6.03;0.98;;;19.50;62.30;;;;;;5105110;27;20055;-74
2023/08/27 12:09:26;;;;;;;5.18;1.15;;;19.60;61.90;;;;;;5105995;27;20528;-74
2023/08/27 12:11:53;;;;;;;2.50;0.80;;;19.60;62.10;;;;;;5085256;27;20039;-71
2023/08/27 12:14:25;;;;;;;5.20;0.80;;;19.60;63.20;;;;;;5108355;27;20667;-75
2023/08/27 12:16:52;;;;;;;3.85;0.90;;;19.60;63.40;;;;;;5090509;27;20092;-72
2023/08/27 12:19:22;;;;;;;1.98;0.70;;;19.50;63.70;;;;;;5108678;27;20392;-74
2023/08/27 12:21:50;;;;;;;1.98;0.80;;;19.40;61.90;;;;;;5089369;27;20042;-74
2023/08/27 12:24:39;;;;;;;3.92;0.90;;;19.30;58.80;;;;;;5112797;27;20135;-71
2023/08/27 12:27:08;;;;;;;1.45;0.60;;;19.30;56.50;;;;;;5094629;27;20047;-75
2023/08/27 12:29:51;;;;;;;3.50;0.90;;;19.70;57.50;;;;;;5103621;27;20111;-75
2023/08/27 12:32:18;;;;;;;1.98;0.85;;;19.80;53.50;;;;;;5108300;27;20159;-71
2023/08/27 12:34:46;;;;;;;3.03;0.85;;;20.40;48.30;;;;;;5084269;27;20417;-72
2023/08/27 12:37:13;;;;;;;2.13;0.98;;;20.70;40.70;;;;;;5098065;27;20051;-75
2023/08/27 12:39:40;;;;;;;3.40;0.93;;;20.60;33.90;;;;;;5085305;27;20201;-74
2023/08/27 12:42:07;;;;;;;3.65;1.00;;;20.50;34.90;;;;;;5100446;27;20121;-72
2023/08/27 12:44:34;;;;;;;2.83;1.00;;;20.60;37.60;;;;;;5084541;27;20673;-76
2023/08/27 12:47:00;;;;;;;2.97;0.88;;;20.50;35.40;;;;;;5106573;27;20055;-72
2023/08/27 12:49:25;;;;;;;2.55;0.88;;;20.40;34.80;;;;;;5107219;27;20364;-72
2023/08/27 12:51:51;;;;;;;2.67;0.90;;;20.40;33.00;;;;;;5089167;27;20058;-73
2023/08/27 12:54:17;;;;;;;3.08;0.82;;;20.00;35.20;;;;;;5107629;27;20775;-75
2023/08/27 12:56:44;;;;;;;3.05;0.88;;;19.90;37.90;;;;;;5106491;27;20431;-72
2023/08/27 12:59:10;;;;;;;2.10;0.73;;;19.70;38.40;;;;;;5080765;27;20055;-73
2023/08/27 13:01:39;;;;;;;1.35;0.70;;;19.80;41.20;;;;;;5072638;27;20129;-70
2023/08/27 13:04:06;;;;;;;2.03;0.68;;;19.70;43.10;;;;;;5053829;27;20043;-72
2023/08/27 13:06:32;;;;;;;2.55;0.77;;;19.60;44.60;;;;;;5070024;27;20051;-71
2023/08/27 13:08:58;;;;;;;2.67;0.68;;;19.50;44.60;;;;;;5075867;27;20047;-73
2023/08/27 13:11:24;;;;;;;2.08;0.90;;;19.50;44.90;;;;;;5090994;27;20056;-71
2023/08/27 13:13:51;;;;;;;1.67;0.80;;;19.40;47.10;;;;;;5076083;27;20051;-75